Terminal Aerodrome Forecast
Issued by NWS

Home | Current Version | Previous Version | Text Only | Print | Product List | Glossary On
Versions: 1 2 3 4 5 6 7 8 9 10 11 12 13 14 15 16 17 18 19
000
FTUS43 KJKL 302336
TAFSJS
TAF
KSJS 302336Z 3100/3124 22005KT P6SM FEW040 SCT250
     FM310700 VRB03KT P6SM VCSH SCT040 BKN120
     FM311500 22008G15KT P6SM VCTS BKN040CB=

USA.gov is the U.S. government's official web portal to all federal, state and local government web resources and services.